Time;durP1;ratioP1;P1;durP2;ratioP2;P2;SDS_P1;SDS_P2;PMS_P1;PMS_P2;Temp;Humidity;BMP_temperature;BMP_pressure;BME280_temperature;BME280_humidity;BME280_pressure;Samples;Min_cycle;Max_cycle;Signal;HPM_P1;HPM_P2
2022/01/04 00:00:12;;;;;;;2.20;1.02;;;9.20;99.90;;;;;;5082635;28;20108;-56
2022/01/04 00:02:39;;;;;;;3.70;1.05;;;9.20;99.90;;;;;;5083721;28;20119;-55
2022/01/04 00:05:07;;;;;;;2.35;1.05;;;9.10;99.90;;;;;;5082499;28;20063;-53
2022/01/04 00:07:33;;;;;;;2.80;1.13;;;9.20;99.90;;;;;;5079141;28;20147;-58
2022/01/04 00:10:01;;;;;;;3.55;1.15;;;9.20;99.90;;;;;;5080234;28;20417;-58
2022/01/04 00:15:13;;;;;;;4.15;1.08;;;9.10;99.90;;;;;;5080327;28;20044;-56
2022/01/04 00:17:40;;;;;;;3.13;1.23;;;9.10;99.90;;;;;;5081409;28;20472;-57
2022/01/04 00:20:07;;;;;;;3.10;1.08;;;9.10;99.90;;;;;;5081069;28;20062;-56
2022/01/04 00:22:34;;;;;;;5.82;1.60;;;9.10;99.90;;;;;;5081547;28;20071;-56
2022/01/04 00:25:02;;;;;;;3.83;1.00;;;9.10;99.90;;;;;;5081566;28;20110;-57
2022/01/04 00:27:29;;;;;;;3.53;0.95;;;9.10;99.90;;;;;;5081761;28;20159;-56
2022/01/04 00:29:55;;;;;;;3.67;1.05;;;9.10;99.90;;;;;;5080308;28;20070;-56
2022/01/04 00:32:22;;;;;;;2.85;1.13;;;9.00;99.90;;;;;;5082446;28;20089;-56
2022/01/04 00:34:49;;;;;;;2.65;0.95;;;9.10;99.90;;;;;;5080899;28;20680;-58
2022/01/04 00:37:16;;;;;;;3.20;1.20;;;9.00;99.90;;;;;;5083675;28;20075;-56
2022/01/04 00:39:43;;;;;;;2.55;1.00;;;9.00;99.90;;;;;;5081470;28;20079;-57
2022/01/04 00:42:10;;;;;;;3.72;0.90;;;9.00;99.90;;;;;;5082913;28;20133;-56
2022/01/04 00:44:36;;;;;;;2.95;1.17;;;9.00;99.90;;;;;;5081302;28;20514;-57
2022/01/04 00:47:04;;;;;;;1.23;0.60;;;9.00;99.90;;;;;;5083300;28;20843;-56
2022/01/04 00:49:31;;;;;;;2.25;1.10;;;9.00;99.90;;;;;;5082205;28;20068;-56
2022/01/04 00:52:00;;;;;;;2.65;0.90;;;9.00;99.90;;;;;;5083207;28;20044;-58
2022/01/04 00:54:27;;;;;;;4.68;1.38;;;8.90;99.90;;;;;;5082129;28;20059;-56
2022/01/04 00:56:54;;;;;;;3.25;1.23;;;9.00;99.90;;;;;;5082930;28;20051;-56
2022/01/04 00:59:21;;;;;;;2.53;0.95;;;9.00;99.90;;;;;;5079316;28;20083;-57
2022/01/04 01:01:47;;;;;;;3.33;1.30;;;9.00;99.90;;;;;;5082638;28;20079;-57
2022/01/04 01:04:15;;;;;;;1.85;1.08;;;8.90;99.90;;;;;;5081485;28;20048;-58
2022/01/04 01:06:41;;;;;;;2.95;1.00;;;8.90;99.90;;;;;;5082952;28;20106;-53
2022/01/04 01:09:08;;;;;;;2.85;1.10;;;9.00;99.90;;;;;;5081749;28;20079;-56
2022/01/04 01:11:35;;;;;;;2.50;0.88;;;9.00;99.90;;;;;;5082597;28;20134;-55
2022/01/04 01:14:02;;;;;;;3.35;1.05;;;9.00;99.90;;;;;;5080801;28;20131;-56
2022/01/04 01:16:28;;;;;;;4.28;1.10;;;8.90;99.90;;;;;;5082508;28;20135;-56
2022/01/04 01:18:55;;;;;;;6.88;1.20;;;8.90;99.90;;;;;;5081528;28;20056;-56
2022/01/04 01:21:22;;;;;;;3.42;1.00;;;9.00;99.90;;;;;;5082808;28;20135;-56
2022/01/04 01:23:49;;;;;;;2.53;0.82;;;8.90;99.90;;;;;;5082044;28;20163;-55
2022/01/04 01:26:16;;;;;;;4.30;1.67;;;8.90;99.90;;;;;;5083129;28;20052;-57
2022/01/04 01:28:42;;;;;;;2.97;1.10;;;8.90;99.90;;;;;;5079959;28;20083;-57
2022/01/04 01:31:10;;;;;;;2.63;0.95;;;8.90;99.90;;;;;;5081957;28;20075;-55
2022/01/04 01:33:37;;;;;;;4.10;1.10;;;8.90;99.90;;;;;;5081688;28;20881;-58
2022/01/04 01:36:04;;;;;;;3.67;1.02;;;8.90;99.90;;;;;;5082317;28;20519;-55
2022/01/04 01:38:30;;;;;;;2.80;1.05;;;8.90;99.90;;;;;;5081615;28;20134;-57
2022/01/04 01:40:57;;;;;;;2.22;0.95;;;8.90;99.90;;;;;;5080222;28;20139;-56
2022/01/04 01:43:26;;;;;;;5.43;1.40;;;8.90;99.90;;;;;;5081102;28;20135;-56
2022/01/04 01:45:53;;;;;;;3.75;1.20;;;8.90;99.90;;;;;;5082321;28;20411;-58
2022/01/04 01:48:20;;;;;;;4.18;1.30;;;8.90;99.90;;;;;;5081890;28;20432;-57
2022/01/04 01:50:47;;;;;;;2.22;0.93;;;9.00;99.90;;;;;;5082079;28;20346;-58
2022/01/04 01:53:14;;;;;;;3.30;0.90;;;9.00;99.90;;;;;;5079967;28;20658;-55
2022/01/04 01:55:40;;;;;;;2.05;1.02;;;9.00;99.90;;;;;;5079821;28;20130;-56
2022/01/04 01:58:07;;;;;;;3.08;0.80;;;9.00;99.90;;;;;;5081438;28;20584;-58
2022/01/04 02:00:34;;;;;;;3.67;1.10;;;9.00;99.90;;;;;;5080284;28;20083;-58
2022/01/04 02:03:02;;;;;;;2.78;0.85;;;9.00;99.90;;;;;;5081535;28;20052;-56
2022/01/04 02:05:30;;;;;;;3.00;1.25;;;9.00;99.90;;;;;;5081431;28;20559;-57
2022/01/04 02:07:57;;;;;;;2.85;1.05;;;9.00;99.90;;;;;;5063775;28;20075;-56
2022/01/04 02:10:24;;;;;;;2.10;0.90;;;9.10;99.90;;;;;;5084131;28;20079;-56
2022/01/04 02:12:52;;;;;;;3.13;1.10;;;9.10;99.90;;;;;;5085041;28;20210;-55
2022/01/04 02:15:20;;;;;;;2.33;1.00;;;9.10;99.90;;;;;;5084742;28;20136;-57
2022/01/04 02:17:47;;;;;;;3.88;1.25;;;9.10;99.90;;;;;;5085894;28;20094;-59
2022/01/04 02:20:14;;;;;;;2.70;0.93;;;9.10;99.90;;;;;;5084302;28;20463;-58
2022/01/04 02:22:41;;;;;;;2.70;1.13;;;9.00;99.90;;;;;;5085898;28;20087;-53
2022/01/04 02:25:08;;;;;;;3.70;1.67;;;9.00;99.90;;;;;;5085040;28;20239;-58
2022/01/04 02:27:35;;;;;;;3.85;1.23;;;9.00;99.90;;;;;;5084107;28;20183;-56
2022/01/04 02:30:04;;;;;;;1.42;0.70;;;8.90;99.90;;;;;;5083012;28;20494;-58
2022/01/04 02:32:31;;;;;;;3.20;1.15;;;8.90;99.90;;;;;;5084078;28;20137;-57
2022/01/04 02:34:57;;;;;;;2.03;0.95;;;8.90;99.90;;;;;;5085850;28;20432;-57
2022/01/04 02:37:25;;;;;;;4.03;1.30;;;8.90;99.90;;;;;;5087329;28;20052;-58
2022/01/04 02:39:53;;;;;;;3.97;1.20;;;8.90;99.90;;;;;;5086442;28;20311;-57
2022/01/04 02:42:20;;;;;;;2.53;0.95;;;8.90;99.90;;;;;;5086501;28;20087;-57
2022/01/04 02:44:46;;;;;;;2.88;1.20;;;8.90;99.90;;;;;;5085838;28;20601;-58
2022/01/04 02:47:14;;;;;;;4.03;1.27;;;8.90;99.90;;;;;;5087193;28;20044;-58
2022/01/04 02:49:41;;;;;;;3.70;1.15;;;8.90;99.90;;;;;;5086388;28;20090;-57
2022/01/04 02:52:08;;;;;;;5.25;1.33;;;8.90;99.90;;;;;;5086002;28;20075;-58
2022/01/04 02:54:34;;;;;;;3.50;1.10;;;8.80;99.90;;;;;;5086775;28;20127;-57
2022/01/04 02:57:01;;;;;;;2.92;1.05;;;8.80;99.90;;;;;;5087306;28;20589;-58
2022/01/04 02:59:28;;;;;;;6.25;1.30;;;8.80;99.90;;;;;;5084242;28;20704;-57
2022/01/04 03:01:55;;;;;;;4.47;1.55;;;8.80;99.90;;;;;;5087420;28;20048;-57
2022/01/04 03:04:23;;;;;;;4.47;1.20;;;8.80;99.90;;;;;;5086254;28;20060;-57
2022/01/04 03:06:49;;;;;;;2.75;1.33;;;8.80;99.90;;;;;;5085838;28;20127;-56
2022/01/04 03:09:16;;;;;;;2.53;1.25;;;8.90;99.90;;;;;;5086019;28;20139;-55
2022/01/04 03:11:43;;;;;;;3.17;1.40;;;8.80;99.90;;;;;;5086793;28;20513;-55
2022/01/04 03:14:10;;;;;;;4.10;1.13;;;8.90;99.90;;;;;;5084621;28;20466;-57
2022/01/04 03:16:36;;;;;;;2.83;1.42;;;8.90;99.90;;;;;;5085546;28;20805;-56
2022/01/04 03:19:06;;;;;;;4.03;1.45;;;8.90;99.90;;;;;;5085892;28;20060;-57
2022/01/04 03:21:42;;;;;;;3.17;1.05;;;8.90;99.90;;;;;;5084528;28;20635;-57
2022/01/04 03:24:11;;;;;;;3.33;1.05;;;8.90;99.90;;;;;;5085702;28;20164;-58
2022/01/04 03:26:38;;;;;;;2.13;0.80;;;8.90;99.90;;;;;;5085092;28;20098;-57
2022/01/04 03:29:05;;;;;;;4.90;1.30;;;8.90;99.90;;;;;;5084742;28;20059;-56
2022/01/04 03:31:32;;;;;;;3.25;1.17;;;8.80;99.90;;;;;;5084686;28;20670;-57
2022/01/04 03:33:59;;;;;;;3.15;0.98;;;8.80;99.90;;;;;;5085234;28;20352;-56
2022/01/04 03:36:26;;;;;;;3.58;1.50;;;8.80;99.90;;;;;;5086435;28;20116;-57
2022/01/04 03:38:53;;;;;;;3.88;1.40;;;8.80;99.90;;;;;;5085751;28;20467;-56
2022/01/04 03:41:20;;;;;;;3.15;1.20;;;8.80;99.90;;;;;;5086475;28;20135;-57
2022/01/04 03:43:48;;;;;;;2.92;1.00;;;8.80;99.90;;;;;;5083817;28;20086;-55
2022/01/04 03:46:14;;;;;;;3.92;1.00;;;8.80;99.90;;;;;;5085707;28;20128;-57
2022/01/04 03:48:41;;;;;;;3.28;1.38;;;8.80;99.90;;;;;;5085419;28;20337;-57
2022/01/04 03:51:08;;;;;;;3.17;1.58;;;8.80;99.90;;;;;;5085620;28;20538;-55
2022/01/04 03:53:35;;;;;;;2.80;1.00;;;8.80;99.90;;;;;;5087503;28;20091;-56
2022/01/04 03:56:02;;;;;;;3.67;1.25;;;8.70;99.90;;;;;;5086208;28;20511;-56
2022/01/04 03:58:29;;;;;;;2.75;1.08;;;8.80;99.90;;;;;;5085787;28;20086;-56
2022/01/04 04:00:56;;;;;;;2.13;0.90;;;8.80;99.90;;;;;;5087368;28;20048;-58
2022/01/04 04:03:23;;;;;;;2.47;0.85;;;8.80;99.90;;;;;;5086458;28;20052;-56
2022/01/04 04:05:49;;;;;;;5.05;1.23;;;8.80;99.90;;;;;;5087101;28;20079;-57
2022/01/04 04:08:16;;;;;;;4.45;1.58;;;8.90;99.90;;;;;;5087178;28;20123;-58
2022/01/04 04:10:43;;;;;;;4.38;1.27;;;8.90;99.90;;;;;;5086061;28;20094;-56
2022/01/04 04:13:10;;;;;;;5.80;1.75;;;8.90;99.90;;;;;;5086755;28;20530;-57
2022/01/04 04:15:40;;;;;;;5.63;1.50;;;8.90;99.90;;;;;;5086426;28;20130;-57
2022/01/04 04:18:07;;;;;;;3.90;1.45;;;8.90;99.90;;;;;;5085957;28;20063;-56
2022/01/04 04:20:35;;;;;;;5.60;1.70;;;8.90;99.90;;;;;;5085073;28;20648;-56
2022/01/04 04:23:02;;;;;;;5.30;1.98;;;8.90;99.90;;;;;;5086331;28;20612;-55
2022/01/04 04:25:28;;;;;;;4.75;1.85;;;8.90;99.90;;;;;;5082518;28;20496;-58
2022/01/04 04:27:55;;;;;;;5.00;1.65;;;8.90;99.90;;;;;;5086360;28;20574;-58
2022/01/04 04:30:22;;;;;;;8.45;2.70;;;9.00;99.90;;;;;;5083565;28;20079;-55
2022/01/04 04:32:49;;;;;;;5.57;2.25;;;8.90;99.90;;;;;;5079337;28;20040;-53
2022/01/04 04:35:16;;;;;;;5.43;1.70;;;9.00;99.90;;;;;;5086349;28;20131;-57
2022/01/04 04:37:42;;;;;;;3.85;1.25;;;9.00;99.90;;;;;;5087473;28;20075;-57
2022/01/04 04:40:10;;;;;;;4.18;1.10;;;9.00;99.90;;;;;;5086613;28;20080;-58
2022/01/04 04:42:36;;;;;;;5.22;1.30;;;9.00;99.90;;;;;;5086156;28;20660;-57
2022/01/04 04:45:04;;;;;;;3.60;1.35;;;9.00;99.90;;;;;;5085551;28;20165;-58
2022/01/04 04:47:31;;;;;;;6.50;1.00;;;9.10;99.90;;;;;;5087129;28;20429;-56
2022/01/04 04:49:57;;;;;;;6.68;1.48;;;9.00;99.90;;;;;;5086227;28;20420;-57
2022/01/04 04:52:24;;;;;;;5.93;1.92;;;9.10;99.90;;;;;;5087138;28;20127;-54
2022/01/04 04:54:51;;;;;;;4.93;1.95;;;9.10;99.90;;;;;;5084925;28;20576;-57
2022/01/04 04:57:18;;;;;;;7.68;2.88;;;9.10;99.90;;;;;;5086026;28;20088;-57
2022/01/04 04:59:45;;;;;;;5.93;1.58;;;9.10;99.90;;;;;;5085540;28;20487;-58
2022/01/04 05:02:11;;;;;;;2.55;1.10;;;9.10;99.90;;;;;;5086654;28;20076;-57
2022/01/04 05:04:39;;;;;;;6.18;1.42;;;9.20;99.90;;;;;;5085763;28;20491;-58
2022/01/04 05:07:06;;;;;;;3.15;1.50;;;9.10;99.90;;;;;;5086638;28;20051;-54
2022/01/04 05:09:33;;;;;;;6.18;1.70;;;9.10;99.90;;;;;;5085952;28;20070;-55
2022/01/04 05:12:00;;;;;;;5.07;1.50;;;9.10;99.90;;;;;;5086414;28;20043;-54
2022/01/04 05:14:27;;;;;;;5.85;1.73;;;9.10;99.90;;;;;;5084956;28;20081;-57
2022/01/04 05:16:53;;;;;;;7.35;1.70;;;9.10;99.90;;;;;;5085668;28;20542;-57
2022/01/04 05:19:20;;;;;;;7.80;1.73;;;9.10;99.90;;;;;;5085576;28;20079;-57
2022/01/04 05:21:47;;;;;;;6.13;1.70;;;9.10;99.90;;;;;;5085935;28;20559;-58
2022/01/04 05:24:13;;;;;;;4.78;1.60;;;9.10;99.90;;;;;;5085441;28;20160;-56
2022/01/04 05:26:40;;;;;;;8.07;2.08;;;9.00;99.90;;;;;;5086272;28;20039;-57
2022/01/04 05:29:07;;;;;;;6.78;1.58;;;9.00;99.90;;;;;;5082461;28;20052;-56
2022/01/04 05:31:34;;;;;;;6.32;1.60;;;8.90;99.90;;;;;;5086410;28;20438;-57
2022/01/04 05:34:00;;;;;;;3.33;1.75;;;8.90;99.90;;;;;;5085179;28;20432;-56
2022/01/04 05:36:27;;;;;;;6.78;1.38;;;8.90;99.90;;;;;;5085477;28;20117;-56
2022/01/04 05:38:54;;;;;;;4.40;1.30;;;8.90;99.90;;;;;;5085616;28;20140;-56
2022/01/04 05:41:21;;;;;;;6.03;1.67;;;8.90;99.90;;;;;;5085974;28;20109;-57
2022/01/04 05:43:47;;;;;;;5.90;1.50;;;8.90;99.90;;;;;;5082341;28;20127;-55
2022/01/04 05:46:17;;;;;;;4.70;2.00;;;8.90;99.90;;;;;;5086335;28;20047;-54
2022/01/04 05:48:44;;;;;;;6.38;1.52;;;8.90;99.90;;;;;;5076412;28;20076;-56
2022/01/04 05:51:11;;;;;;;6.07;1.70;;;8.90;99.90;;;;;;5078197;28;20458;-54
2022/01/04 05:53:38;;;;;;;4.72;1.48;;;8.90;99.90;;;;;;5083051;28;20163;-58
2022/01/04 05:56:05;;;;;;;4.80;1.38;;;8.90;99.90;;;;;;5083667;28;20044;-56
2022/01/04 05:58:31;;;;;;;4.60;1.70;;;9.00;99.90;;;;;;5081239;28;20115;-58
2022/01/04 06:00:59;;;;;;;4.93;1.52;;;9.00;99.90;;;;;;5083541;28;20139;-56
2022/01/04 06:03:26;;;;;;;5.00;1.80;;;9.00;99.90;;;;;;5080363;28;20595;-55
2022/01/04 06:05:54;;;;;;;8.65;1.83;;;9.00;99.90;;;;;;5081321;28;20052;-56
2022/01/04 06:08:21;;;;;;;4.95;1.48;;;9.10;99.90;;;;;;5081735;28;20143;-56
2022/01/04 06:10:51;;;;;;;10.30;1.95;;;9.10;99.90;;;;;;5076789;28;20700;-56
2022/01/04 06:16:03;;;;;;;6.65;2.10;;;9.00;99.90;;;;;;5081642;28;20075;-57
2022/01/04 06:18:30;;;;;;;4.50;1.38;;;9.10;99.90;;;;;;5081476;28;20048;-56
2022/01/04 06:20:57;;;;;;;5.35;1.42;;;9.10;99.90;;;;;;5081331;28;20120;-56
2022/01/04 06:23:24;;;;;;;4.97;1.58;;;9.10;99.90;;;;;;5071246;28;20084;-58
2022/01/04 06:25:54;;;;;;;5.38;1.77;;;9.10;99.90;;;;;;5081278;28;20687;-58
2022/01/04 06:28:20;;;;;;;5.70;1.67;;;9.10;99.90;;;;;;5063889;28;20091;-54
2022/01/04 06:30:49;;;;;;;4.57;1.55;;;9.10;99.90;;;;;;5081643;28;20063;-52
2022/01/04 06:33:20;;;;;;;5.43;1.50;;;9.10;99.90;;;;;;5083860;28;20127;-57
2022/01/04 06:35:47;;;;;;;4.97;1.40;;;9.10;99.90;;;;;;5085151;28;20139;-55
2022/01/04 06:38:14;;;;;;;2.88;1.20;;;9.10;99.90;;;;;;5084895;28;20123;-56
2022/01/04 06:40:41;;;;;;;5.50;2.03;;;9.10;99.90;;;;;;5081543;28;20127;-58
2022/01/04 06:43:08;;;;;;;3.42;1.60;;;9.10;99.90;;;;;;5084177;28;20153;-54
2022/01/04 06:45:35;;;;;;;6.85;1.63;;;9.10;99.90;;;;;;5082552;28;20495;-58
2022/01/04 06:48:01;;;;;;;4.88;1.50;;;9.10;99.90;;;;;;5079948;28;20081;-57
2022/01/04 06:50:28;;;;;;;5.07;1.48;;;9.10;99.90;;;;;;5081045;28;20127;-55
2022/01/04 06:52:55;;;;;;;6.63;1.50;;;9.00;99.90;;;;;;5082461;28;20128;-55
2022/01/04 06:55:22;;;;;;;6.68;1.70;;;9.00;99.90;;;;;;5083128;28;20075;-56
2022/01/04 06:57:49;;;;;;;4.15;1.50;;;9.00;99.90;;;;;;5086116;28;20044;-54
2022/01/04 07:00:16;;;;;;;5.78;1.55;;;9.00;99.90;;;;;;5086419;28;20104;-54
2022/01/04 07:02:44;;;;;;;5.07;1.48;;;9.00;99.90;;;;;;5084884;28;20048;-54
2022/01/04 07:05:11;;;;;;;4.38;1.30;;;9.00;99.90;;;;;;5081659;28;20082;-57
2022/01/04 07:07:38;;;;;;;3.95;1.38;;;9.10;99.90;;;;;;5085168;28;20079;-57
2022/01/04 07:10:05;;;;;;;4.00;1.40;;;9.10;99.90;;;;;;5084559;28;20075;-57
2022/01/04 07:12:31;;;;;;;5.28;1.65;;;9.10;99.90;;;;;;5085988;28;20445;-58
2022/01/04 07:14:58;;;;;;;4.68;1.40;;;9.10;99.90;;;;;;5083615;28;20062;-57
2022/01/04 07:17:25;;;;;;;4.20;1.20;;;9.10;99.90;;;;;;5083096;28;20133;-57
2022/01/04 07:19:51;;;;;;;6.75;1.58;;;9.10;99.90;;;;;;5084838;28;20071;-57
2022/01/04 07:22:18;;;;;;;3.92;1.48;;;9.10;99.90;;;;;;5085065;28;20155;-56
2022/01/04 07:24:45;;;;;;;4.72;1.23;;;9.10;99.90;;;;;;5084158;28;20114;-57
2022/01/04 07:27:12;;;;;;;6.18;1.58;;;9.10;99.90;;;;;;5086720;28;20048;-54
2022/01/04 07:29:38;;;;;;;4.88;1.30;;;9.10;99.90;;;;;;5086429;28;20115;-57
2022/01/04 07:32:05;;;;;;;2.33;1.30;;;9.10;99.90;;;;;;5087018;28;20146;-56
2022/01/04 07:34:32;;;;;;;7.25;1.90;;;9.00;99.90;;;;;;5085839;28;20135;-57
2022/01/04 07:36:59;;;;;;;5.45;1.73;;;9.00;99.90;;;;;;5087559;28;20131;-56
2022/01/04 07:39:26;;;;;;;4.25;1.58;;;8.90;99.90;;;;;;5086304;28;20080;-58
2022/01/04 07:41:55;;;;;;;4.00;1.30;;;8.90;99.90;;;;;;5086068;28;20074;-57
2022/01/04 07:44:21;;;;;;;7.07;1.70;;;8.80;99.90;;;;;;5083171;28;20140;-57
2022/01/04 07:46:48;;;;;;;4.47;1.50;;;8.80;99.90;;;;;;5084957;28;20153;-56
2022/01/04 07:49:16;;;;;;;4.47;1.42;;;8.70;99.90;;;;;;5084421;28;20548;-58
2022/01/04 07:51:42;;;;;;;6.38;2.00;;;8.70;99.90;;;;;;5076221;28;20135;-57
2022/01/04 07:54:09;;;;;;;4.57;1.50;;;8.70;99.90;;;;;;5080461;28;20135;-56
2022/01/04 07:56:36;;;;;;;4.78;1.15;;;8.60;99.90;;;;;;5080392;28;20127;-56
2022/01/04 07:59:03;;;;;;;4.43;1.20;;;8.60;99.90;;;;;;5074267;28;20466;-54
2022/01/04 08:01:30;;;;;;;5.22;1.40;;;8.60;99.90;;;;;;5080407;28;20171;-57
2022/01/04 08:03:57;;;;;;;5.35;1.42;;;8.60;99.90;;;;;;5079835;28;20054;-58
2022/01/04 08:06:24;;;;;;;3.58;1.50;;;8.50;99.90;;;;;;5079929;28;20145;-56
2022/01/04 08:08:50;;;;;;;2.85;1.25;;;8.50;99.90;;;;;;5079985;28;20131;-56
2022/01/04 08:11:18;;;;;;;4.20;1.48;;;8.50;99.90;;;;;;5079735;28;20201;-57
2022/01/04 08:13:45;;;;;;;3.58;1.60;;;8.50;99.90;;;;;;5078475;28;20131;-58
2022/01/04 08:16:15;;;;;;;3.95;1.67;;;8.40;99.90;;;;;;5079900;28;20183;-58
2022/01/04 08:18:42;;;;;;;4.70;1.98;;;8.40;99.90;;;;;;5078938;28;20142;-58
2022/01/04 08:21:29;;;;;;;3.08;1.52;;;8.40;99.90;;;;;;5079392;28;20051;-57
2022/01/04 08:23:56;;;;;;;3.67;1.70;;;8.40;99.90;;;;;;5074000;28;20040;-57
2022/01/04 08:26:23;;;;;;;6.70;2.05;;;8.40;99.90;;;;;;5080179;28;20087;-57
2022/01/04 08:28:50;;;;;;;4.05;1.88;;;8.40;99.90;;;;;;5078733;28;20720;-56
2022/01/04 08:31:17;;;;;;;4.05;1.52;;;8.40;99.90;;;;;;5079331;28;20135;-59
2022/01/04 08:33:51;;;;;;;3.78;1.40;;;8.40;99.90;;;;;;5075332;28;20074;-56
2022/01/04 08:36:18;;;;;;;4.07;1.75;;;8.40;99.90;;;;;;5078894;28;20083;-57
2022/01/04 08:38:45;;;;;;;3.60;1.55;;;8.40;99.90;;;;;;5079554;28;20083;-58
2022/01/04 08:41:12;;;;;;;3.78;1.50;;;8.40;99.90;;;;;;5077417;28;20086;-58
2022/01/04 08:43:38;;;;;;;2.42;1.40;;;8.50;99.90;;;;;;5076773;28;20142;-58
2022/01/04 08:46:05;;;;;;;4.20;1.30;;;8.50;99.90;;;;;;5079997;28;20076;-57
2022/01/04 08:48:32;;;;;;;2.55;1.10;;;8.60;99.90;;;;;;5079182;28;20450;-57
2022/01/04 08:50:59;;;;;;;3.45;1.20;;;8.60;99.90;;;;;;5079553;28;20578;-58
2022/01/04 08:53:26;;;;;;;3.30;1.33;;;8.60;99.90;;;;;;5079812;28;20101;-58
2022/01/04 08:55:52;;;;;;;4.78;1.20;;;8.70;99.90;;;;;;5079074;28;20438;-57
2022/01/04 08:58:20;;;;;;;3.10;1.20;;;8.70;99.90;;;;;;5078178;28;20340;-54
2022/01/04 09:00:48;;;;;;;3.65;1.30;;;8.80;99.90;;;;;;5078075;28;20588;-58
2022/01/04 09:03:15;;;;;;;2.83;0.82;;;8.80;99.90;;;;;;5078765;28;20466;-58
2022/01/04 09:05:42;;;;;;;4.22;1.40;;;8.90;99.90;;;;;;5078918;28;20109;-59
2022/01/04 09:08:10;;;;;;;3.67;1.02;;;8.90;99.90;;;;;;5078229;28;20136;-58
2022/01/04 09:10:37;;;;;;;3.42;1.30;;;8.90;99.90;;;;;;5078008;28;20080;-58
2022/01/04 09:13:17;;;;;;;3.72;1.30;;;8.90;99.90;;;;;;5078310;28;20555;-59
2022/01/04 09:18:48;;;;;;;2.28;1.15;;;9.00;99.90;;;;;;5067697;28;20582;-59
2022/01/04 09:21:27;;;;;;;5.28;1.50;;;9.00;99.90;;;;;;5079331;28;20121;-59
2022/01/04 09:23:55;;;;;;;3.35;1.40;;;9.00;99.90;;;;;;5078438;28;20126;-59
2022/01/04 09:26:22;;;;;;;4.75;1.45;;;9.00;99.90;;;;;;5078963;28;20105;-59
2022/01/04 09:28:49;;;;;;;5.05;1.50;;;9.10;99.90;;;;;;5077187;28;20127;-57
2022/01/04 09:31:16;;;;;;;4.40;1.80;;;9.00;99.90;;;;;;5066008;28;20117;-58
2022/01/04 09:33:43;;;;;;;4.25;1.65;;;9.00;99.90;;;;;;5078238;28;20166;-59
2022/01/04 09:36:37;;;;;;;4.53;1.23;;;9.10;99.90;;;;;;5075428;28;20506;-58
2022/01/04 09:39:16;;;;;;;7.18;2.03;;;9.10;99.90;;;;;;5076859;28;20047;-59
2022/01/04 09:41:43;;;;;;;8.05;1.75;;;9.00;99.90;;;;;;5076512;28;20087;-59
2022/01/04 09:44:12;;;;;;;5.80;1.83;;;9.00;99.90;;;;;;5078948;28;21005;-59
2022/01/04 09:46:39;;;;;;;4.72;1.63;;;9.00;99.90;;;;;;5081421;28;20138;-57
2022/01/04 09:49:06;;;;;;;5.85;1.42;;;9.00;99.90;;;;;;5082739;28;20392;-57
2022/01/04 09:51:33;;;;;;;7.35;2.53;;;9.00;99.90;;;;;;5074601;28;20080;-58
2022/01/04 09:54:00;;;;;;;4.65;1.70;;;9.00;99.90;;;;;;5081541;28;20083;-59
2022/01/04 09:56:26;;;;;;;5.10;1.48;;;9.00;99.90;;;;;;5077627;28;20048;-59
2022/01/04 09:58:53;;;;;;;7.82;1.58;;;9.10;99.90;;;;;;5079868;28;20091;-59
2022/01/04 10:01:28;;;;;;;3.80;1.65;;;9.10;99.90;;;;;;5077491;28;20849;-58
2022/01/04 10:04:15;;;;;;;3.67;1.23;;;9.20;99.90;;;;;;5079800;28;20411;-56
2022/01/04 10:07:00;;;;;;;7.45;2.05;;;9.20;99.90;;;;;;5073883;28;20131;-57
2022/01/04 10:09:48;;;;;;;3.92;1.52;;;8.70;99.90;;;;;;5083101;28;20486;-58
2022/01/04 10:12:16;;;;;;;2.20;1.33;;;8.10;99.90;;;;;;5076835;28;20127;-57
2022/01/04 10:14:46;;;;;;;2.33;1.33;;;7.90;99.90;;;;;;5081685;28;20071;-54
2022/01/04 10:17:20;;;;;;;0.82;0.82;;;7.60;99.90;;;;;;5079172;28;20493;-57
2022/01/04 10:19:49;;;;;;;1.30;0.95;;;7.40;99.90;;;;;;5081199;28;20321;-57
2022/01/04 10:22:35;;;;;;;1.05;0.80;;;7.20;99.90;;;;;;5084654;28;20127;-55
2022/01/04 10:25:02;;;;;;;0.77;0.63;;;7.00;99.90;;;;;;5078475;28;20044;-57
2022/01/04 10:27:36;;;;;;;0.95;0.60;;;6.90;99.90;;;;;;5081416;28;20048;-57
2022/01/04 10:30:11;;;;;;;0.47;0.40;;;6.70;99.90;;;;;;5082592;28;20055;-57
2022/01/04 10:32:48;;;;;;;0.68;0.50;;;6.60;99.90;;;;;;5083390;28;20518;-56
2022/01/04 10:35:33;;;;;;;0.30;0.30;;;6.40;99.90;;;;;;5086005;28;20094;-57
2022/01/04 10:38:23;;;;;;;0.70;0.45;;;6.30;99.90;;;;;;5088191;28;20510;-57
2022/01/04 10:41:05;;;;;;;0.98;0.52;;;6.30;99.90;;;;;;5088372;28;20090;-52
2022/01/04 10:43:53;;;;;;;0.40;0.32;;;6.30;99.90;;;;;;5086052;28;20185;-58
2022/01/04 10:46:31;;;;;;;0.60;0.50;;;6.40;99.90;;;;;;5079704;28;20135;-58
2022/01/04 10:48:58;;;;;;;1.30;0.70;;;6.40;99.90;;;;;;5083515;28;20100;-58
2022/01/04 10:51:26;;;;;;;1.02;0.70;;;6.40;99.90;;;;;;5070855;28;20083;-59
2022/01/04 10:53:58;;;;;;;0.90;0.70;;;6.40;99.90;;;;;;5077708;28;20137;-58
2022/01/04 10:56:31;;;;;;;1.20;1.00;;;6.40;99.90;;;;;;5079616;28;20496;-58
2022/01/04 10:59:03;;;;;;;2.50;1.50;;;6.50;99.90;;;;;;5078765;28;20578;-59
2022/01/04 11:01:37;;;;;;;1.73;1.13;;;6.30;99.90;;;;;;5080105;28;20104;-58
2022/01/04 11:04:04;;;;;;;2.28;1.17;;;6.30;99.90;;;;;;5076730;28;20041;-58
2022/01/04 11:06:35;;;;;;;1.13;1.02;;;6.20;99.90;;;;;;5080683;28;20090;-57
2022/01/04 11:09:03;;;;;;;1.83;1.10;;;6.10;99.90;;;;;;5079886;28;20082;-58
2022/01/04 11:11:30;;;;;;;1.63;1.00;;;6.00;99.90;;;;;;5080266;28;20131;-57
2022/01/04 11:13:58;;;;;;;0.80;0.60;;;6.00;99.90;;;;;;5075952;28;20127;-58
2022/01/04 11:16:26;;;;;;;1.00;0.50;;;5.90;99.90;;;;;;5080789;28;20135;-56
2022/01/04 11:18:54;;;;;;;1.13;0.50;;;5.80;99.90;;;;;;5078324;28;20524;-57
2022/01/04 11:21:24;;;;;;;0.43;0.40;;;5.70;99.90;;;;;;5080562;28;20127;-59
2022/01/04 11:23:52;;;;;;;0.30;0.30;;;5.60;99.90;;;;;;5077532;28;20086;-57
2022/01/04 11:26:19;;;;;;;0.57;0.50;;;5.70;99.90;;;;;;5079468;28;20056;-57
2022/01/04 11:28:48;;;;;;;0.95;0.50;;;5.70;99.90;;;;;;5074756;28;20456;-58
2022/01/04 11:31:36;;;;;;;0.40;0.40;;;5.60;99.90;;;;;;5080579;28;20048;-60
2022/01/04 11:34:06;;;;;;;0.40;0.40;;;5.60;99.90;;;;;;5072635;28;20052;-58
2022/01/04 11:36:40;;;;;;;0.82;0.50;;;5.60;99.90;;;;;;5076806;28;20140;-58
2022/01/04 11:39:36;;;;;;;1.77;1.35;;;5.60;99.90;;;;;;5077146;28;20818;-58
2022/01/04 11:42:07;;;;;;;2.53;0.93;;;5.50;99.90;;;;;;5075980;28;20083;-58
2022/01/04 11:44:44;;;;;;;0.98;0.75;;;5.50;99.90;;;;;;5077264;28;20052;-57
2022/01/04 11:47:17;;;;;;;0.65;0.50;;;5.40;99.90;;;;;;5075859;28;20144;-57
2022/01/04 11:50:03;;;;;;;0.88;0.50;;;5.30;99.90;;;;;;5074106;28;20119;-57
2022/01/04 11:53:06;;;;;;;0.40;0.40;;;5.30;99.90;;;;;;5071737;28;20083;-58
2022/01/04 11:55:36;;;;;;;0.50;0.50;;;5.30;99.90;;;;;;5071490;28;20129;-58
2022/01/04 11:58:14;;;;;;;0.70;0.63;;;5.30;99.90;;;;;;5065758;28;20376;-58
2022/01/04 12:00:44;;;;;;;0.93;0.70;;;5.30;99.90;;;;;;5066865;28;20453;-56
2022/01/04 12:03:20;;;;;;;0.80;0.75;;;5.30;99.90;;;;;;5073856;28;20048;-57
2022/01/04 12:05:55;;;;;;;0.70;0.60;;;5.20;99.90;;;;;;5080013;28;20048;-56
2022/01/04 12:08:24;;;;;;;1.25;0.90;;;5.10;99.90;;;;;;5059556;28;20079;-54
2022/01/04 12:10:56;;;;;;;1.02;0.80;;;5.00;99.90;;;;;;5069552;28;20476;-55
2022/01/04 12:13:24;;;;;;;1.98;1.20;;;4.90;99.90;;;;;;5077259;28;20040;-56
2022/01/04 12:16:05;;;;;;;1.77;1.17;;;4.80;99.90;;;;;;5073389;28;20132;-58
2022/01/04 12:18:33;;;;;;;1.48;1.20;;;4.80;99.90;;;;;;5077889;28;20052;-57
2022/01/04 12:21:01;;;;;;;1.67;1.02;;;4.80;99.90;;;;;;5080377;28;20127;-57
2022/01/04 12:23:31;;;;;;;0.80;0.70;;;4.80;99.90;;;;;;5077911;28;20091;-57
2022/01/04 12:26:14;;;;;;;1.98;1.08;;;4.90;99.90;;;;;;5073527;28;20395;-56
2022/01/04 12:28:42;;;;;;;1.67;1.02;;;4.80;99.90;;;;;;5075665;28;20806;-57
2022/01/04 12:31:24;;;;;;;1.90;1.30;;;4.70;99.90;;;;;;5079683;28;20105;-56
2022/01/04 12:33:57;;;;;;;2.53;1.30;;;4.70;99.90;;;;;;5074190;28;20052;-57
2022/01/04 12:36:35;;;;;;;1.50;1.20;;;4.70;99.90;;;;;;5079374;28;20471;-58
2022/01/04 12:39:10;;;;;;;4.38;1.55;;;4.80;99.90;;;;;;5064716;28;20043;-57
2022/01/04 12:41:37;;;;;;;1.52;1.02;;;4.80;99.90;;;;;;5078800;28;20135;-54
2022/01/04 12:44:10;;;;;;;1.73;1.17;;;4.90;99.90;;;;;;5077429;28;20048;-57
2022/01/04 12:46:41;;;;;;;2.47;1.52;;;4.90;99.90;;;;;;5077536;28;20528;-57
2022/01/04 12:49:09;;;;;;;3.28;1.42;;;4.70;99.90;;;;;;5079027;28;20843;-56
2022/01/04 12:51:39;;;;;;;1.98;1.55;;;4.70;99.90;;;;;;5077851;28;20224;-54
2022/01/04 12:54:06;;;;;;;3.58;2.03;;;4.70;99.90;;;;;;5075747;28;20071;-57
2022/01/04 12:56:33;;;;;;;3.28;2.05;;;4.60;99.90;;;;;;5079362;28;20638;-57
2022/01/04 12:58:59;;;;;;;3.20;1.80;;;4.60;99.90;;;;;;5076460;28;20655;-56
2022/01/04 13:01:29;;;;;;;2.78;1.83;;;4.60;99.90;;;;;;5079545;28;20860;-58
2022/01/04 13:03:57;;;;;;;2.80;1.70;;;4.70;99.90;;;;;;5077624;28;20058;-57
2022/01/04 13:06:24;;;;;;;3.03;1.70;;;4.70;99.90;;;;;;5078362;28;20076;-58
2022/01/04 13:08:52;;;;;;;2.72;1.50;;;4.70;99.90;;;;;;5079248;28;20054;-57
2022/01/04 13:11:18;;;;;;;5.53;2.08;;;4.80;99.90;;;;;;5079172;28;20573;-57
2022/01/04 13:13:55;;;;;;;2.63;1.70;;;4.70;99.90;;;;;;5074086;28;20105;-57